Wilton, New Hampshire
Current Conditions -  °F | °C
As of 11:51 AM on Thursday 23 Oct 2014 (Local Time) from KASH Reporting Station
Overcast Overcast  
Wind Chill: 51°   Ceiling: 1200
Heat Index: 51°   Visibility: 10mi
Dew Point: 49°   Wind: 12mph
Humidity: 93%   Direction: 360°N
Pressure: 29.7"   Gusts: 21mph
Location:  42.85°N, 71.74°W
Report Text: KASH 231551Z 36010G18KT 10SM OVC012 11/09 A2970 RMK AO2 T01050094 RAE50 P0000 SLP307 $
Loading
Personal Weather Stations






























Interactive Weather Map New forecast layout! Learn more

10-Day Weather Forecast

Advertisements
Track Severe Weather on mobile